createdAt,value
2017-03-13T00:07:59.821Z,12
2017-03-13T00:17:59.693Z,10
2017-03-13T00:28:00.310Z,12
2017-03-13T00:38:00.454Z,13
2017-03-13T00:48:01.692Z,14
2017-03-13T00:57:59.569Z,14
2017-03-13T01:07:59.737Z,13
2017-03-13T01:17:59.533Z,14
2017-03-13T01:27:59.627Z,14
2017-03-13T01:37:59.565Z,15
2017-03-13T01:47:59.584Z,14
2017-03-13T01:57:59.561Z,14
2017-03-13T02:07:59.616Z,15
2017-03-13T02:17:59.674Z,15
2017-03-13T02:27:59.673Z,16
2017-03-13T02:37:59.738Z,16
2017-03-13T02:47:59.749Z,15
2017-03-13T02:57:59.992Z,15
2017-03-13T03:08:00.058Z,16
2017-03-13T03:17:59.906Z,16
2017-03-13T03:27:59.636Z,15
2017-03-13T03:38:00.215Z,17
2017-03-13T03:47:59.778Z,16
2017-03-13T03:57:59.684Z,17
2017-03-13T04:07:59.838Z,17
2017-03-13T04:17:59.804Z,17
2017-03-13T04:27:59.788Z,17
2017-03-13T04:37:59.651Z,17
2017-03-13T04:47:59.803Z,17
2017-03-13T04:57:59.754Z,18
2017-03-13T05:07:59.844Z,17
2017-03-13T05:18:00.158Z,19
2017-03-13T05:27:59.762Z,18
2017-03-13T05:37:59.773Z,17
2017-03-13T05:48:00.147Z,17
2017-03-13T05:58:00.079Z,17
2017-03-13T06:07:59.737Z,18
2017-03-13T06:17:59.784Z,17
2017-03-13T06:27:59.852Z,18
2017-03-13T06:37:59.858Z,18
2017-03-13T06:47:59.804Z,19
2017-03-13T06:57:59.791Z,18
2017-03-13T07:07:59.804Z,16
2017-03-13T07:17:59.882Z,15
2017-03-13T07:27:59.848Z,15
2017-03-13T07:37:59.988Z,15
2017-03-13T07:48:00.099Z,14
2017-03-13T07:58:09.573Z,14
2017-03-13T08:07:59.926Z,12
2017-03-13T08:17:59.832Z,12
2017-03-13T08:27:59.947Z,14
2017-03-13T08:37:59.986Z,16
2017-03-13T08:48:00.223Z,14
2017-03-13T08:57:59.935Z,14
2017-03-13T09:07:59.792Z,12
2017-03-13T09:17:59.864Z,11
2017-03-13T09:28:00.021Z,11
2017-03-13T09:37:59.875Z,9
2017-03-13T09:48:00.053Z,12
2017-03-13T09:57:59.888Z,11
2017-03-13T10:07:59.983Z,11
2017-03-13T10:17:59.924Z,12
2017-03-13T10:27:59.966Z,11
2017-03-13T10:37:59.953Z,11
2017-03-13T10:48:00.037Z,12
2017-03-13T10:58:00.467Z,12
2017-03-13T11:07:59.971Z,13
2017-03-13T11:17:59.973Z,13
2017-03-13T11:28:00.134Z,12
2017-03-13T11:38:00.002Z,12
2017-03-13T11:48:00.094Z,12
2017-03-13T11:58:00.082Z,11
2017-03-13T12:08:00.015Z,13
2017-03-13T12:18:00.165Z,12
2017-03-13T12:28:00.023Z,13
2017-03-13T12:38:00.138Z,13
2017-03-13T12:48:00.059Z,14
2017-03-13T12:58:00.584Z,14
2017-03-13T13:08:00.211Z,15
2017-03-13T13:18:00.000Z,14
2017-03-13T13:28:00.040Z,14
2017-03-13T13:38:00.124Z,14
2017-03-13T13:48:00.126Z,14
2017-03-13T13:58:00.107Z,14
2017-03-13T14:08:00.167Z,15
2017-03-13T14:18:00.530Z,15
2017-03-13T14:28:00.552Z,17
2017-03-13T14:38:00.127Z,15
2017-03-13T14:48:00.114Z,16
2017-03-13T14:58:00.135Z,15
2017-03-13T15:08:00.179Z,13
2017-03-13T15:18:00.105Z,20
2017-03-13T15:28:00.152Z,17
2017-03-13T15:38:00.266Z,16
2017-03-13T15:48:00.353Z,18
2017-03-13T15:58:00.459Z,17
2017-03-13T16:08:00.903Z,18
2017-03-13T16:18:00.832Z,18
2017-03-13T16:28:00.270Z,19
2017-03-13T16:38:00.221Z,19
2017-03-13T16:48:00.323Z,21
2017-03-13T16:58:00.227Z,24
2017-03-13T17:08:00.330Z,25
2017-03-13T17:18:00.343Z,26
2017-03-13T17:28:00.298Z,27
2017-03-13T17:38:00.364Z,28
2017-03-13T17:48:00.424Z,27
2017-03-13T17:58:00.274Z,27
2017-03-13T18:08:00.403Z,29
2017-03-13T18:18:00.295Z,28
2017-03-13T18:28:00.435Z,27
2017-03-13T18:38:00.376Z,27
2017-03-13T18:48:00.453Z,26
2017-03-13T18:58:00.419Z,27
2017-03-13T19:08:00.324Z,28
2017-03-13T19:18:00.395Z,20
2017-03-13T19:28:00.477Z,17
2017-03-13T19:38:00.807Z,16
2017-03-13T19:48:00.439Z,15
2017-03-13T19:58:01.075Z,15
2017-03-13T20:08:00.430Z,18
2017-03-13T20:18:00.528Z,15
2017-03-13T20:28:00.494Z,15
2017-03-13T20:38:00.595Z,16
2017-03-13T20:48:00.586Z,16
2017-03-13T20:58:00.646Z,15
2017-03-13T21:08:00.575Z,17
2017-03-13T21:18:01.593Z,15
2017-03-13T21:28:02.906Z,18
2017-03-13T21:38:00.560Z,17
2017-03-13T21:48:00.585Z,17
2017-03-13T21:58:00.588Z,20
2017-03-13T22:08:00.800Z,21
2017-03-13T22:18:00.728Z,21
2017-03-13T22:28:00.662Z,21
2017-03-13T22:38:00.889Z,21
2017-03-13T22:48:00.686Z,21
2017-03-13T22:58:00.531Z,19
2017-03-13T23:08:00.668Z,18
2017-03-13T23:18:00.580Z,17
2017-03-13T23:28:00.675Z,17
2017-03-13T23:38:00.684Z,16
2017-03-13T23:48:00.787Z,17
2017-03-13T23:58:00.598Z,14
